createdAt,value
2023-02-15T00:04:51.693Z,0.80
2023-02-15T00:09:56.914Z,0.60
2023-02-15T00:15:01.040Z,1.10
2023-02-15T00:20:05.228Z,1.20
2023-02-15T00:25:10.675Z,1.30
2023-02-15T00:30:17.673Z,1.30
2023-02-15T00:35:24.527Z,1.00
2023-02-15T00:40:42.537Z,0.90
2023-02-15T00:45:49.228Z,0.90
2023-02-15T00:50:54.673Z,1.00
2023-02-15T00:56:00.946Z,1.20
2023-02-15T01:01:09.388Z,1.50
2023-02-15T01:06:18.044Z,1.50
2023-02-15T01:11:24.298Z,1.40
2023-02-15T01:16:29.692Z,0.70
2023-02-15T01:21:35.652Z,0.50
2023-02-15T01:26:42.481Z,0.40
2023-02-15T01:31:51.250Z,0.30
2023-02-15T01:36:55.246Z,0.80
2023-02-15T01:42:00.730Z,0.30
2023-02-15T01:47:06.557Z,0.40
2023-02-15T01:52:12.214Z,0.20
2023-02-15T01:57:19.296Z,0.20
2023-02-15T02:02:26.111Z,0.00
2023-02-15T02:07:31.235Z,0.30
2023-02-15T02:12:39.860Z,0.20
2023-02-15T02:17:54.973Z,-0.20
2023-02-15T02:23:31.773Z,0.20
2023-02-15T02:28:51.204Z,0.40
2023-02-15T02:33:59.955Z,0.20
2023-02-15T02:39:14.375Z,-0.10
2023-02-15T02:44:21.495Z,-0.10
2023-02-15T02:49:37.378Z,-0.10
2023-02-15T02:54:40.697Z,-0.20
2023-02-15T02:59:48.041Z,-0.30
2023-02-15T03:04:59.990Z,-0.30
2023-02-15T03:10:04.975Z,-0.40
2023-02-15T03:15:11.250Z,-0.40
2023-02-15T03:20:18.798Z,-0.60
2023-02-15T03:25:23.303Z,-0.60
2023-02-15T03:30:28.417Z,-0.30
2023-02-15T03:35:38.305Z,0.00
2023-02-15T03:41:01.095Z,-0.10
2023-02-15T03:46:07.902Z,-0.40
2023-02-15T03:51:32.395Z,-0.30
2023-02-15T03:56:37.623Z,-0.30
2023-02-15T04:02:00.545Z,-0.40
2023-02-15T04:07:06.886Z,-0.50
2023-02-15T04:12:11.196Z,-0.10
2023-02-15T04:17:14.744Z,0.10
2023-02-15T04:22:39.480Z,0.30
2023-02-15T04:27:45.233Z,0.20
2023-02-15T04:32:48.615Z,0.00
2023-02-15T04:37:54.386Z,0.20
2023-02-15T04:42:58.290Z,0.10
2023-02-15T04:48:02.312Z,-0.30
2023-02-15T04:53:07.678Z,-0.20
2023-02-15T04:58:12.218Z,-0.10
2023-02-15T05:03:15.675Z,0.00
2023-02-15T05:08:21.456Z,0.00
2023-02-15T05:13:27.109Z,-0.20
2023-02-15T05:18:30.769Z,-0.40
2023-02-15T05:23:36.187Z,-0.40
2023-02-15T05:28:40.495Z,-0.50
2023-02-15T05:33:44.182Z,-0.40
2023-02-15T05:38:48.930Z,0.30
2023-02-15T05:43:52.997Z,0.00
2023-02-15T05:48:56.308Z,-0.20
2023-02-15T05:54:02.066Z,-0.20
2023-02-15T05:59:06.234Z,-0.20
2023-02-15T06:04:10.680Z,-0.30
2023-02-15T06:09:19.473Z,-0.20
2023-02-15T06:14:24.259Z,-0.10
2023-02-15T06:19:28.425Z,0.00
2023-02-15T06:24:33.106Z,0.20
2023-02-15T06:29:36.331Z,0.30
2023-02-15T06:34:43.707Z,0.60
2023-02-15T06:39:49.326Z,0.20
2023-02-15T06:44:52.468Z,0.50
2023-02-15T06:49:56.023Z,0.50
2023-02-15T06:55:02.710Z,0.20
2023-02-15T07:00:07.119Z,0.10
2023-02-15T07:05:10.897Z,0.10
2023-02-15T07:10:15.669Z,-0.10
2023-02-15T07:15:23.838Z,-0.10
2023-02-15T07:20:28.145Z,0.00
2023-02-15T07:25:32.967Z,0.00
2023-02-15T07:30:36.922Z,-0.30
2023-02-15T07:35:40.283Z,-0.50
2023-02-15T07:40:44.861Z,-0.20
2023-02-15T07:45:48.628Z,-0.30
2023-02-15T07:50:51.756Z,-0.30
2023-02-15T07:55:57.170Z,-0.40
2023-02-15T08:01:05.184Z,-0.40
2023-02-15T08:06:09.456Z,-0.20
2023-02-15T08:11:30.271Z,-0.10
2023-02-15T08:16:35.584Z,-0.20
2023-02-15T08:21:40.574Z,-0.10
2023-02-15T08:26:46.075Z,-0.20
2023-02-15T08:31:49.850Z,0.10
2023-02-15T08:36:53.280Z,0.40
2023-02-15T08:41:58.471Z,0.20
2023-02-15T08:47:04.724Z,0.20
2023-02-15T08:52:09.204Z,0.30
2023-02-15T08:57:14.429Z,0.40
2023-02-15T09:02:18.719Z,0.20
2023-02-15T09:07:22.983Z,0.20
2023-02-15T09:12:28.050Z,0.20
2023-02-15T09:17:34.846Z,0.30
2023-02-15T09:22:38.237Z,0.30
2023-02-15T09:27:43.897Z,0.30
2023-02-15T09:32:47.830Z,0.50
2023-02-15T09:37:51.330Z,0.70
2023-02-15T09:43:19.275Z,0.80
2023-02-15T09:48:43.481Z,0.90
2023-02-15T09:53:58.145Z,0.90
2023-02-15T09:59:09.016Z,0.70
2023-02-15T10:04:27.626Z,0.90
2023-02-15T10:09:51.867Z,1.00
2023-02-15T10:15:12.782Z,1.00
2023-02-15T10:20:22.358Z,1.20
2023-02-15T10:25:34.346Z,1.30
2023-02-15T10:30:45.400Z,1.30
2023-02-15T10:35:53.706Z,1.50
2023-02-15T10:41:07.002Z,2.00
2023-02-15T10:46:16.717Z,2.70
2023-02-15T10:51:25.226Z,3.40
2023-02-15T10:56:33.189Z,3.90
2023-02-15T11:01:40.977Z,4.60
2023-02-15T11:06:49.266Z,4.70
2023-02-15T11:11:54.018Z,4.90
2023-02-15T11:17:01.669Z,5.00
2023-02-15T11:22:06.943Z,5.50
2023-02-15T11:27:19.341Z,6.30
2023-02-15T11:32:26.857Z,7.60
2023-02-15T11:37:32.928Z,8.30
2023-02-15T11:42:36.584Z,7.10
2023-02-15T11:47:41.978Z,8.00
2023-02-15T11:52:45.846Z,7.90
2023-02-15T11:57:52.430Z,7.80
2023-02-15T12:02:58.508Z,7.60
2023-02-15T12:08:05.108Z,7.80
2023-02-15T12:13:13.407Z,7.60
2023-02-15T12:18:35.063Z,8.00
2023-02-15T12:23:43.927Z,8.70
2023-02-15T12:28:53.152Z,8.20
2023-02-15T12:33:59.274Z,8.90
2023-02-15T12:39:19.070Z,9.20
2023-02-15T12:44:25.481Z,9.90
2023-02-15T12:49:32.285Z,10.20
2023-02-15T12:54:41.109Z,10.60
2023-02-15T12:59:56.423Z,11.10
2023-02-15T13:05:08.105Z,11.40
2023-02-15T13:10:28.727Z,11.60
2023-02-15T13:15:36.865Z,11.90
2023-02-15T13:20:42.205Z,12.00
2023-02-15T13:25:51.833Z,13.30
2023-02-15T13:30:55.422Z,13.00
2023-02-15T13:36:04.262Z,12.80
2023-02-15T13:41:09.176Z,12.50
2023-02-15T13:46:24.839Z,12.50
2023-02-15T13:51:33.665Z,12.80
2023-02-15T13:56:43.540Z,12.90
2023-02-15T14:01:50.196Z,13.20
2023-02-15T14:07:08.658Z,13.20
2023-02-15T14:12:26.629Z,12.80
2023-02-15T14:17:32.944Z,12.40
2023-02-15T14:22:41.227Z,12.30
2023-02-15T14:28:12.449Z,12.70
2023-02-15T14:33:34.313Z,12.30
2023-02-15T14:39:01.859Z,11.90
2023-02-15T14:44:10.311Z,12.00
2023-02-15T14:49:17.511Z,12.10
2023-02-15T14:54:54.674Z,11.90
2023-02-15T15:00:00.674Z,12.50
2023-02-15T15:05:11.150Z,12.80
2023-02-15T15:10:43.740Z,13.10
2023-02-15T15:15:50.005Z,12.60
2023-02-15T15:20:53.706Z,11.70
2023-02-15T15:26:21.633Z,11.40
2023-02-15T15:31:30.222Z,11.00
2023-02-15T15:37:11.166Z,10.90
2023-02-15T15:42:19.562Z,11.40
2023-02-15T15:47:37.724Z,11.30
2023-02-15T15:52:42.006Z,11.00
2023-02-15T15:57:46.741Z,11.20
2023-02-15T16:02:56.581Z,10.90
2023-02-15T16:08:11.024Z,10.80
2023-02-15T16:13:15.860Z,10.60
2023-02-15T16:18:21.407Z,10.60
2023-02-15T16:23:57.666Z,10.40
2023-02-15T16:29:02.510Z,10.10
2023-02-15T16:34:11.576Z,9.90
2023-02-15T16:39:21.156Z,9.60
2023-02-15T16:44:25.363Z,9.30
2023-02-15T16:49:31.947Z,9.00
2023-02-15T16:54:35.768Z,9.00
2023-02-15T16:59:43.336Z,9.20
2023-02-15T17:04:48.149Z,9.20
2023-02-15T17:09:53.578Z,8.90
2023-02-15T17:14:57.779Z,8.30
2023-02-15T17:20:06.359Z,8.40
2023-02-15T17:25:23.957Z,8.20
2023-02-15T17:30:30.707Z,7.90
2023-02-15T17:35:39.338Z,7.40
2023-02-15T17:40:43.055Z,7.30
2023-02-15T17:45:50.051Z,7.40
2023-02-15T17:50:54.900Z,7.00
2023-02-15T17:55:58.610Z,6.50
2023-02-15T18:01:19.802Z,6.50
2023-02-15T18:06:45.358Z,6.60
2023-02-15T18:11:51.056Z,6.10
2023-02-15T18:16:55.368Z,6.00
2023-02-15T18:22:01.616Z,5.90
2023-02-15T18:27:06.989Z,5.90
2023-02-15T18:32:15.205Z,5.70
2023-02-15T18:37:23.349Z,5.60
2023-02-15T18:42:28.569Z,5.70
2023-02-15T18:47:32.467Z,6.00
2023-02-15T18:52:38.829Z,6.10
2023-02-15T18:57:45.501Z,5.70
2023-02-15T19:02:53.212Z,5.80
2023-02-15T19:07:58.226Z,5.60
2023-02-15T19:13:01.961Z,5.30
2023-02-15T19:18:05.753Z,4.80
2023-02-15T19:23:15.703Z,4.60
2023-02-15T19:28:21.102Z,4.40
2023-02-15T19:33:25.040Z,4.40
2023-02-15T19:38:33.330Z,4.30
2023-02-15T19:43:39.673Z,4.10
2023-02-15T19:48:44.165Z,3.80
2023-02-15T19:53:52.305Z,4.00
2023-02-15T19:58:57.802Z,4.10
2023-02-15T20:04:01.821Z,4.00
2023-02-15T20:09:08.774Z,3.80
2023-02-15T20:14:14.715Z,3.60
2023-02-15T20:19:18.539Z,3.60
2023-02-15T20:24:25.465Z,3.60
2023-02-15T20:29:29.463Z,3.60
2023-02-15T20:34:33.129Z,3.90
2023-02-15T20:39:38.809Z,4.00
2023-02-15T20:44:42.566Z,3.80
2023-02-15T20:49:46.460Z,3.90
2023-02-15T20:55:18.340Z,3.60
2023-02-15T21:00:23.982Z,3.40
2023-02-15T21:05:30.321Z,3.40
2023-02-15T21:10:35.622Z,3.30
2023-02-15T21:15:41.075Z,3.20
2023-02-15T21:20:47.217Z,3.20
2023-02-15T21:25:53.215Z,2.80
2023-02-15T21:30:58.390Z,3.20
2023-02-15T21:36:02.284Z,3.20
2023-02-15T21:41:26.181Z,2.90
2023-02-15T21:46:58.371Z,2.90
2023-02-15T21:52:15.341Z,2.70
2023-02-15T21:57:22.397Z,2.50
2023-02-15T22:02:30.262Z,2.30
2023-02-15T22:07:36.521Z,2.40
2023-02-15T22:12:43.602Z,2.10
2023-02-15T22:17:48.120Z,2.20
2023-02-15T22:22:53.030Z,2.10
2023-02-15T22:27:58.980Z,2.20
2023-02-15T22:33:05.504Z,2.20
2023-02-15T22:38:10.206Z,2.20
2023-02-15T22:43:21.510Z,2.20
2023-02-15T22:48:24.985Z,2.20
2023-02-15T22:53:28.827Z,2.40
2023-02-15T22:58:34.695Z,2.50
2023-02-15T23:03:38.796Z,2.30
2023-02-15T23:08:43.415Z,2.00
2023-02-15T23:13:48.813Z,1.80
2023-02-15T23:18:53.068Z,2.10
2023-02-15T23:23:57.165Z,1.80
2023-02-15T23:29:03.902Z,2.20
2023-02-15T23:34:14.440Z,1.50
2023-02-15T23:39:37.188Z,1.30
2023-02-15T23:44:42.031Z,1.30
2023-02-15T23:49:48.246Z,1.50
2023-02-15T23:54:52.294Z,1.40
2023-02-15T23:59:57.831Z,1.30
